sensor_id;sensor_type;location;lat;lon;timestamp;temperature;humidity
21712;DHT22;11017;53.552;9.910;2023-08-06T00:00:56;17.80;99.90
21712;DHT22;11017;53.552;9.910;2023-08-06T00:03:23;17.50;99.90
21712;DHT22;11017;53.552;9.910;2023-08-06T00:05:49;17.60;99.90
21712;DHT22;11017;53.552;9.910;2023-08-06T00:08:18;17.50;99.90
21712;DHT22;11017;53.552;9.910;2023-08-06T00:10:47;17.60;99.90
21712;DHT22;11017;53.552;9.910;2023-08-06T00:13:13;17.40;99.90
21712;DHT22;11017;53.552;9.910;2023-08-06T00:15:40;17.30;99.90
21712;DHT22;11017;53.552;9.910;2023-08-06T00:18:07;17.40;99.90
21712;DHT22;11017;53.552;9.910;2023-08-06T00:20:34;17.50;99.90
21712;DHT22;11017;53.552;9.910;2023-08-06T00:23:01;17.60;99.90
21712;DHT22;11017;53.552;9.910;2023-08-06T00:25:29;17.50;99.90
21712;DHT22;11017;53.552;9.910;2023-08-06T00:27:56;17.50;99.90
21712;DHT22;11017;53.552;9.910;2023-08-06T00:30:23;17.50;99.90
21712;DHT22;11017;53.552;9.910;2023-08-06T00:32:50;17.60;99.90
21712;DHT22;11017;53.552;9.910;2023-08-06T00:35:16;17.70;99.90
21712;DHT22;11017;53.552;9.910;2023-08-06T00:37:43;17.80;99.90
21712;DHT22;11017;53.552;9.910;2023-08-06T00:40:10;17.40;99.90
21712;DHT22;11017;53.552;9.910;2023-08-06T00:42:38;17.50;99.90
21712;DHT22;11017;53.552;9.910;2023-08-06T00:45:06;17.60;99.90
21712;DHT22;11017;53.552;9.910;2023-08-06T00:47:33;17.80;99.90
21712;DHT22;11017;53.552;9.910;2023-08-06T00:50:00;17.80;99.90
21712;DHT22;11017;53.552;9.910;2023-08-06T00:52:27;17.80;99.90
21712;DHT22;11017;53.552;9.910;2023-08-06T00:54:54;17.50;99.90
21712;DHT22;11017;53.552;9.910;2023-08-06T00:57:24;17.50;99.90
21712;DHT22;11017;53.552;9.910;2023-08-06T00:59:53;17.50;99.90
21712;DHT22;11017;53.552;9.910;2023-08-06T01:02:20;17.50;99.90
21712;DHT22;11017;53.552;9.910;2023-08-06T01:04:47;17.30;99.90
21712;DHT22;11017;53.552;9.910;2023-08-06T01:07:21;17.30;99.90
21712;DHT22;11017;53.552;9.910;2023-08-06T01:09:57;17.40;99.90
21712;DHT22;11017;53.552;9.910;2023-08-06T01:12:34;17.40;99.90
21712;DHT22;11017;53.552;9.910;2023-08-06T01:15:12;17.30;99.90
21712;DHT22;11017;53.552;9.910;2023-08-06T01:17:40;17.30;99.90
21712;DHT22;11017;53.552;9.910;2023-08-06T01:20:08;17.20;99.90
21712;DHT22;11017;53.552;9.910;2023-08-06T01:22:36;17.10;99.90
21712;DHT22;11017;53.552;9.910;2023-08-06T01:25:04;17.30;99.90
21712;DHT22;11017;53.552;9.910;2023-08-06T01:27:33;17.30;99.90
21712;DHT22;11017;53.552;9.910;2023-08-06T01:30:10;17.30;99.90
21712;DHT22;11017;53.552;9.910;2023-08-06T01:32:41;17.40;99.90
21712;DHT22;11017;53.552;9.910;2023-08-06T01:35:11;17.40;99.90
21712;DHT22;11017;53.552;9.910;2023-08-06T01:37:40;17.50;99.90
21712;DHT22;11017;53.552;9.910;2023-08-06T01:40:10;17.50;99.90
21712;DHT22;11017;53.552;9.910;2023-08-06T01:42:37;17.70;99.90
21712;DHT22;11017;53.552;9.910;2023-08-06T01:45:05;17.70;99.90
21712;DHT22;11017;53.552;9.910;2023-08-06T01:47:32;17.80;99.90
21712;DHT22;11017;53.552;9.910;2023-08-06T01:49:59;17.70;99.90
21712;DHT22;11017;53.552;9.910;2023-08-06T01:52:27;17.70;99.90
21712;DHT22;11017;53.552;9.910;2023-08-06T01:54:55;17.40;99.90
21712;DHT22;11017;53.552;9.910;2023-08-06T01:57:22;17.40;99.90
21712;DHT22;11017;53.552;9.910;2023-08-06T01:59:49;17.40;99.90
21712;DHT22;11017;53.552;9.910;2023-08-06T02:02:16;17.40;99.90
21712;DHT22;11017;53.552;9.910;2023-08-06T02:04:42;17.40;99.90
21712;DHT22;11017;53.552;9.910;2023-08-06T02:07:09;17.40;99.90
21712;DHT22;11017;53.552;9.910;2023-08-06T02:09:36;17.50;99.90
21712;DHT22;11017;53.552;9.910;2023-08-06T02:12:05;17.50;99.90
21712;DHT22;11017;53.552;9.910;2023-08-06T02:14:33;17.50;99.90
21712;DHT22;11017;53.552;9.910;2023-08-06T02:17:00;17.50;99.90
21712;DHT22;11017;53.552;9.910;2023-08-06T02:19:26;17.50;99.90
21712;DHT22;11017;53.552;9.910;2023-08-06T02:21:53;17.50;99.90
21712;DHT22;11017;53.552;9.910;2023-08-06T02:24:20;17.50;99.90
21712;DHT22;11017;53.552;9.910;2023-08-06T02:26:47;17.50;99.90
21712;DHT22;11017;53.552;9.910;2023-08-06T02:29:18;17.50;99.90
21712;DHT22;11017;53.552;9.910;2023-08-06T02:31:45;17.60;99.90
21712;DHT22;11017;53.552;9.910;2023-08-06T02:34:11;17.70;99.90
21712;DHT22;11017;53.552;9.910;2023-08-06T02:36:38;17.60;99.90
21712;DHT22;11017;53.552;9.910;2023-08-06T02:39:05;17.50;99.90
21712;DHT22;11017;53.552;9.910;2023-08-06T02:41:32;17.50;99.90
21712;DHT22;11017;53.552;9.910;2023-08-06T02:43:59;17.30;99.90
21712;DHT22;11017;53.552;9.910;2023-08-06T02:46:27;17.40;99.90
21712;DHT22;11017;53.552;9.910;2023-08-06T02:48:54;17.40;99.90
21712;DHT22;11017;53.552;9.910;2023-08-06T02:51:21;17.40;99.90
21712;DHT22;11017;53.552;9.910;2023-08-06T02:53:48;17.20;99.90
21712;DHT22;11017;53.552;9.910;2023-08-06T02:56:15;17.40;99.90
21712;DHT22;11017;53.552;9.910;2023-08-06T02:58:41;17.40;99.90
21712;DHT22;11017;53.552;9.910;2023-08-06T03:01:08;17.30;99.90
21712;DHT22;11017;53.552;9.910;2023-08-06T03:03:36;17.40;99.90
21712;DHT22;11017;53.552;9.910;2023-08-06T03:06:03;17.40;99.90
21712;DHT22;11017;53.552;9.910;2023-08-06T03:08:30;17.40;99.90
21712;DHT22;11017;53.552;9.910;2023-08-06T03:10:57;17.40;99.90
21712;DHT22;11017;53.552;9.910;2023-08-06T03:13:24;17.60;99.90
21712;DHT22;11017;53.552;9.910;2023-08-06T03:15:54;17.60;99.90
21712;DHT22;11017;53.552;9.910;2023-08-06T03:18:21;17.60;99.90
21712;DHT22;11017;53.552;9.910;2023-08-06T03:20:50;17.50;99.90
21712;DHT22;11017;53.552;9.910;2023-08-06T03:23:17;17.50;99.90
21712;DHT22;11017;53.552;9.910;2023-08-06T03:25:44;17.60;99.90
21712;DHT22;11017;53.552;9.910;2023-08-06T03:28:11;17.70;99.90
21712;DHT22;11017;53.552;9.910;2023-08-06T03:30:38;17.50;99.90
21712;DHT22;11017;53.552;9.910;2023-08-06T03:33:05;17.50;99.90
21712;DHT22;11017;53.552;9.910;2023-08-06T03:35:32;17.50;99.90
21712;DHT22;11017;53.552;9.910;2023-08-06T03:38:00;17.60;99.90
21712;DHT22;11017;53.552;9.910;2023-08-06T03:40:27;17.70;99.90
21712;DHT22;11017;53.552;9.910;2023-08-06T03:42:54;17.70;99.90
21712;DHT22;11017;53.552;9.910;2023-08-06T03:45:21;17.50;99.90
21712;DHT22;11017;53.552;9.910;2023-08-06T03:47:48;17.40;99.90
21712;DHT22;11017;53.552;9.910;2023-08-06T03:50:15;17.40;99.90
21712;DHT22;11017;53.552;9.910;2023-08-06T03:52:42;17.40;99.90
21712;DHT22;11017;53.552;9.910;2023-08-06T03:55:10;17.30;99.90
21712;DHT22;11017;53.552;9.910;2023-08-06T03:57:37;17.50;99.90
21712;DHT22;11017;53.552;9.910;2023-08-06T04:00:04;17.60;99.90
21712;DHT22;11017;53.552;9.910;2023-08-06T04:02:31;17.40;99.90
21712;DHT22;11017;53.552;9.910;2023-08-06T04:04:58;17.50;99.90
21712;DHT22;11017;53.552;9.910;2023-08-06T04:07:25;17.60;99.90
21712;DHT22;11017;53.552;9.910;2023-08-06T04:09:54;17.60;99.90
21712;DHT22;11017;53.552;9.910;2023-08-06T04:12:22;17.70;99.90
21712;DHT22;11017;53.552;9.910;2023-08-06T04:14:50;17.60;99.90
21712;DHT22;11017;53.552;9.910;2023-08-06T04:17:17;17.40;99.90
21712;DHT22;11017;53.552;9.910;2023-08-06T04:19:46;17.40;99.90
21712;DHT22;11017;53.552;9.910;2023-08-06T04:22:14;17.50;99.90
21712;DHT22;11017;53.552;9.910;2023-08-06T04:24:41;17.60;99.90
21712;DHT22;11017;53.552;9.910;2023-08-06T04:27:08;17.60;99.90
21712;DHT22;11017;53.552;9.910;2023-08-06T04:29:37;17.60;99.90
21712;DHT22;11017;53.552;9.910;2023-08-06T04:32:06;17.60;99.90
21712;DHT22;11017;53.552;9.910;2023-08-06T04:34:34;17.60;99.90
21712;DHT22;11017;53.552;9.910;2023-08-06T04:37:02;17.30;99.90
21712;DHT22;11017;53.552;9.910;2023-08-06T04:39:29;17.40;99.90
21712;DHT22;11017;53.552;9.910;2023-08-06T04:41:56;17.00;99.90
21712;DHT22;11017;53.552;9.910;2023-08-06T04:44:23;17.10;99.90
21712;DHT22;11017;53.552;9.910;2023-08-06T04:46:51;16.90;99.90
21712;DHT22;11017;53.552;9.910;2023-08-06T04:49:20;17.10;99.90
21712;DHT22;11017;53.552;9.910;2023-08-06T04:51:47;17.30;99.90
21712;DHT22;11017;53.552;9.910;2023-08-06T04:54:14;17.40;99.90
21712;DHT22;11017;53.552;9.910;2023-08-06T04:56:41;17.50;99.90
21712;DHT22;11017;53.552;9.910;2023-08-06T04:59:08;17.50;99.90
21712;DHT22;11017;53.552;9.910;2023-08-06T05:01:35;17.50;99.90
21712;DHT22;11017;53.552;9.910;2023-08-06T05:04:03;17.60;99.90
21712;DHT22;11017;53.552;9.910;2023-08-06T05:06:30;17.60;99.90
21712;DHT22;11017;53.552;9.910;2023-08-06T05:08:57;17.40;99.90
21712;DHT22;11017;53.552;9.910;2023-08-06T05:11:24;17.20;99.90
21712;DHT22;11017;53.552;9.910;2023-08-06T05:13:51;17.00;99.90
21712;DHT22;11017;53.552;9.910;2023-08-06T05:16:18;17.10;99.90
21712;DHT22;11017;53.552;9.910;2023-08-06T05:18:45;17.10;99.90
21712;DHT22;11017;53.552;9.910;2023-08-06T05:21:13;17.20;99.90
21712;DHT22;11017;53.552;9.910;2023-08-06T05:23:41;17.40;99.90
21712;DHT22;11017;53.552;9.910;2023-08-06T05:26:08;17.60;99.90
21712;DHT22;11017;53.552;9.910;2023-08-06T05:28:35;17.60;99.90
21712;DHT22;11017;53.552;9.910;2023-08-06T05:31:03;17.60;99.90
21712;DHT22;11017;53.552;9.910;2023-08-06T05:33:30;17.60;99.90
21712;DHT22;11017;53.552;9.910;2023-08-06T05:35:57;17.60;99.90
21712;DHT22;11017;53.552;9.910;2023-08-06T05:38:26;17.60;99.90
21712;DHT22;11017;53.552;9.910;2023-08-06T05:40:53;17.60;99.90
21712;DHT22;11017;53.552;9.910;2023-08-06T05:43:20;17.60;99.90
21712;DHT22;11017;53.552;9.910;2023-08-06T05:45:49;17.80;99.90
21712;DHT22;11017;53.552;9.910;2023-08-06T05:48:16;17.80;99.90
21712;DHT22;11017;53.552;9.910;2023-08-06T05:50:43;17.80;99.90
21712;DHT22;11017;53.552;9.910;2023-08-06T05:53:10;17.90;99.90
21712;DHT22;11017;53.552;9.910;2023-08-06T05:55:39;17.90;99.90
21712;DHT22;11017;53.552;9.910;2023-08-06T05:58:06;18.10;99.90
21712;DHT22;11017;53.552;9.910;2023-08-06T06:00:32;18.10;99.90
21712;DHT22;11017;53.552;9.910;2023-08-06T06:03:00;18.10;99.90
21712;DHT22;11017;53.552;9.910;2023-08-06T06:05:27;18.20;99.90
21712;DHT22;11017;53.552;9.910;2023-08-06T06:07:54;18.10;99.90
21712;DHT22;11017;53.552;9.910;2023-08-06T06:10:21;18.20;99.90
21712;DHT22;11017;53.552;9.910;2023-08-06T06:12:49;18.20;99.90
21712;DHT22;11017;53.552;9.910;2023-08-06T06:15:16;18.00;99.90
21712;DHT22;11017;53.552;9.910;2023-08-06T06:17:43;18.00;99.90
21712;DHT22;11017;53.552;9.910;2023-08-06T06:20:10;17.90;99.90
21712;DHT22;11017;53.552;9.910;2023-08-06T06:22:37;18.10;99.90
21712;DHT22;11017;53.552;9.910;2023-08-06T06:25:05;18.10;99.90
21712;DHT22;11017;53.552;9.910;2023-08-06T06:27:32;18.00;99.90
21712;DHT22;11017;53.552;9.910;2023-08-06T06:30:00;17.90;99.90
21712;DHT22;11017;53.552;9.910;2023-08-06T06:32:27;17.90;99.90
21712;DHT22;11017;53.552;9.910;2023-08-06T06:34:54;17.90;99.90
21712;DHT22;11017;53.552;9.910;2023-08-06T06:37:21;18.00;99.90
21712;DHT22;11017;53.552;9.910;2023-08-06T06:39:48;17.90;99.90
21712;DHT22;11017;53.552;9.910;2023-08-06T06:42:14;17.70;99.90
21712;DHT22;11017;53.552;9.910;2023-08-06T06:44:42;17.80;99.90
21712;DHT22;11017;53.552;9.910;2023-08-06T06:47:10;17.90;99.90
21712;DHT22;11017;53.552;9.910;2023-08-06T06:49:37;17.90;99.90
21712;DHT22;11017;53.552;9.910;2023-08-06T06:52:04;17.90;99.90
21712;DHT22;11017;53.552;9.910;2023-08-06T06:54:31;18.20;99.90
21712;DHT22;11017;53.552;9.910;2023-08-06T06:56:58;18.40;99.90
21712;DHT22;11017;53.552;9.910;2023-08-06T06:59:25;18.70;99.90
21712;DHT22;11017;53.552;9.910;2023-08-06T07:01:52;18.60;99.90
21712;DHT22;11017;53.552;9.910;2023-08-06T07:04:20;18.80;99.90
21712;DHT22;11017;53.552;9.910;2023-08-06T07:06:47;19.00;99.90
21712;DHT22;11017;53.552;9.910;2023-08-06T07:09:14;18.70;99.90
21712;DHT22;11017;53.552;9.910;2023-08-06T07:11:41;18.70;99.90
21712;DHT22;11017;53.552;9.910;2023-08-06T07:14:09;18.80;99.90
21712;DHT22;11017;53.552;9.910;2023-08-06T07:16:36;19.00;99.90
21712;DHT22;11017;53.552;9.910;2023-08-06T07:19:03;19.10;99.90
21712;DHT22;11017;53.552;9.910;2023-08-06T07:21:32;18.80;99.90
21712;DHT22;11017;53.552;9.910;2023-08-06T07:23:59;19.10;99.90
21712;DHT22;11017;53.552;9.910;2023-08-06T07:26:26;19.30;99.90
21712;DHT22;11017;53.552;9.910;2023-08-06T07:28:53;19.60;99.90
21712;DHT22;11017;53.552;9.910;2023-08-06T07:31:19;19.70;99.90
21712;DHT22;11017;53.552;9.910;2023-08-06T07:33:46;19.60;99.90
21712;DHT22;11017;53.552;9.910;2023-08-06T07:36:14;19.90;99.90
21712;DHT22;11017;53.552;9.910;2023-08-06T07:38:43;19.90;99.90
21712;DHT22;11017;53.552;9.910;2023-08-06T07:41:09;19.80;99.90
21712;DHT22;11017;53.552;9.910;2023-08-06T07:43:36;20.00;99.90
21712;DHT22;11017;53.552;9.910;2023-08-06T07:46:03;20.30;99.90
21712;DHT22;11017;53.552;9.910;2023-08-06T07:48:30;20.20;99.90
21712;DHT22;11017;53.552;9.910;2023-08-06T07:50:57;20.50;99.90
21712;DHT22;11017;53.552;9.910;2023-08-06T07:53:25;20.50;99.90
21712;DHT22;11017;53.552;9.910;2023-08-06T07:55:56;20.40;99.90
21712;DHT22;11017;53.552;9.910;2023-08-06T07:58:24;20.70;99.90
21712;DHT22;11017;53.552;9.910;2023-08-06T08:00:51;20.80;99.90
21712;DHT22;11017;53.552;9.910;2023-08-06T08:03:18;21.00;99.90
21712;DHT22;11017;53.552;9.910;2023-08-06T08:05:45;20.60;99.90
21712;DHT22;11017;53.552;9.910;2023-08-06T08:08:12;20.50;99.90
21712;DHT22;11017;53.552;9.910;2023-08-06T08:10:39;20.80;99.90
21712;DHT22;11017;53.552;9.910;2023-08-06T08:13:07;20.60;99.90
21712;DHT22;11017;53.552;9.910;2023-08-06T08:15:34;20.70;99.90
21712;DHT22;11017;53.552;9.910;2023-08-06T08:18:01;20.40;99.90
21712;DHT22;11017;53.552;9.910;2023-08-06T08:20:28;21.00;99.90
21712;DHT22;11017;53.552;9.910;2023-08-06T08:22:58;21.20;99.90
21712;DHT22;11017;53.552;9.910;2023-08-06T08:25:25;21.20;99.90
21712;DHT22;11017;53.552;9.910;2023-08-06T08:27:53;21.50;99.90
21712;DHT22;11017;53.552;9.910;2023-08-06T08:30:21;21.70;99.90
21712;DHT22;11017;53.552;9.910;2023-08-06T08:32:50;21.60;99.90
21712;DHT22;11017;53.552;9.910;2023-08-06T08:35:17;21.00;99.90
21712;DHT22;11017;53.552;9.910;2023-08-06T08:37:44;20.60;99.90
21712;DHT22;11017;53.552;9.910;2023-08-06T08:40:11;21.00;99.90
21712;DHT22;11017;53.552;9.910;2023-08-06T08:42:38;20.90;99.90
21712;DHT22;11017;53.552;9.910;2023-08-06T08:45:07;20.80;99.90
21712;DHT22;11017;53.552;9.910;2023-08-06T08:47:39;20.90;99.90
21712;DHT22;11017;53.552;9.910;2023-08-06T08:50:08;21.00;99.90
21712;DHT22;11017;53.552;9.910;2023-08-06T08:52:36;21.00;99.90
21712;DHT22;11017;53.552;9.910;2023-08-06T08:55:05;21.20;99.90
21712;DHT22;11017;53.552;9.910;2023-08-06T08:57:33;20.90;99.90
21712;DHT22;11017;53.552;9.910;2023-08-06T09:00:00;21.20;99.90
21712;DHT22;11017;53.552;9.910;2023-08-06T09:02:29;21.50;99.90
21712;DHT22;11017;53.552;9.910;2023-08-06T09:05:00;21.90;99.90
21712;DHT22;11017;53.552;9.910;2023-08-06T09:07:31;21.90;99.90
21712;DHT22;11017;53.552;9.910;2023-08-06T09:10:02;21.90;99.90
21712;DHT22;11017;53.552;9.910;2023-08-06T09:12:30;21.60;99.90
21712;DHT22;11017;53.552;9.910;2023-08-06T09:14:57;21.60;99.90
21712;DHT22;11017;53.552;9.910;2023-08-06T09:17:24;21.20;99.90
21712;DHT22;11017;53.552;9.910;2023-08-06T09:19:51;21.20;99.90
21712;DHT22;11017;53.552;9.910;2023-08-06T09:22:19;21.60;99.90
21712;DHT22;11017;53.552;9.910;2023-08-06T09:24:46;21.70;99.90
21712;DHT22;11017;53.552;9.910;2023-08-06T09:27:13;21.80;99.90
21712;DHT22;11017;53.552;9.910;2023-08-06T09:29:41;21.50;99.90
21712;DHT22;11017;53.552;9.910;2023-08-06T09:32:09;21.20;99.90
21712;DHT22;11017;53.552;9.910;2023-08-06T09:34:39;21.10;99.90
21712;DHT22;11017;53.552;9.910;2023-08-06T09:37:06;21.30;99.90
21712;DHT22;11017;53.552;9.910;2023-08-06T09:39:37;21.40;99.90
21712;DHT22;11017;53.552;9.910;2023-08-06T09:42:04;21.00;99.90
21712;DHT22;11017;53.552;9.910;2023-08-06T09:44:32;20.90;99.90
21712;DHT22;11017;53.552;9.910;2023-08-06T09:47:01;21.50;99.90
21712;DHT22;11017;53.552;9.910;2023-08-06T09:49:40;21.70;99.90
21712;DHT22;11017;53.552;9.910;2023-08-06T09:52:10;21.40;99.90
21712;DHT22;11017;53.552;9.910;2023-08-06T09:54:39;21.20;99.90
21712;DHT22;11017;53.552;9.910;2023-08-06T09:57:06;21.40;99.90
21712;DHT22;11017;53.552;9.910;2023-08-06T09:59:33;21.70;99.90
21712;DHT22;11017;53.552;9.910;2023-08-06T10:02:00;21.90;99.90
21712;DHT22;11017;53.552;9.910;2023-08-06T10:04:29;22.00;99.90
21712;DHT22;11017;53.552;9.910;2023-08-06T10:06:56;22.10;99.90
21712;DHT22;11017;53.552;9.910;2023-08-06T10:09:24;22.30;99.90
21712;DHT22;11017;53.552;9.910;2023-08-06T10:11:53;22.30;99.90
21712;DHT22;11017;53.552;9.910;2023-08-06T10:14:24;21.90;99.90
21712;DHT22;11017;53.552;9.910;2023-08-06T10:16:52;22.00;99.90
21712;DHT22;11017;53.552;9.910;2023-08-06T10:19:19;21.50;99.90
21712;DHT22;11017;53.552;9.910;2023-08-06T10:22:08;21.70;99.90
21712;DHT22;11017;53.552;9.910;2023-08-06T10:24:46;22.10;99.90
21712;DHT22;11017;53.552;9.910;2023-08-06T10:27:20;21.60;99.90
21712;DHT22;11017;53.552;9.910;2023-08-06T10:29:47;22.00;99.90
21712;DHT22;11017;53.552;9.910;2023-08-06T10:32:15;22.50;99.90
21712;DHT22;11017;53.552;9.910;2023-08-06T10:34:59;22.90;99.90
21712;DHT22;11017;53.552;9.910;2023-08-06T10:37:35;23.20;99.90
21712;DHT22;11017;53.552;9.910;2023-08-06T10:40:02;23.30;99.90
21712;DHT22;11017;53.552;9.910;2023-08-06T10:42:31;23.50;99.90
21712;DHT22;11017;53.552;9.910;2023-08-06T10:45:17;23.50;99.90
21712;DHT22;11017;53.552;9.910;2023-08-06T10:47:45;23.30;99.90
21712;DHT22;11017;53.552;9.910;2023-08-06T10:50:13;23.10;99.90
21712;DHT22;11017;53.552;9.910;2023-08-06T10:52:42;22.80;99.90
21712;DHT22;11017;53.552;9.910;2023-08-06T10:55:09;22.50;99.90
21712;DHT22;11017;53.552;9.910;2023-08-06T10:57:38;22.50;99.90
21712;DHT22;11017;53.552;9.910;2023-08-06T11:00:06;22.60;99.90
21712;DHT22;11017;53.552;9.910;2023-08-06T11:02:34;22.80;99.90
21712;DHT22;11017;53.552;9.910;2023-08-06T11:05:06;21.70;99.90
21712;DHT22;11017;53.552;9.910;2023-08-06T11:07:33;21.20;99.90
21712;DHT22;11017;53.552;9.910;2023-08-06T11:10:04;21.20;99.90
21712;DHT22;11017;53.552;9.910;2023-08-06T11:12:31;21.40;99.90
21712;DHT22;11017;53.552;9.910;2023-08-06T11:15:00;20.70;99.90
21712;DHT22;11017;53.552;9.910;2023-08-06T11:17:28;20.90;99.90
21712;DHT22;11017;53.552;9.910;2023-08-06T11:19:55;21.20;99.90
21712;DHT22;11017;53.552;9.910;2023-08-06T11:22:22;21.30;99.90
21712;DHT22;11017;53.552;9.910;2023-08-06T11:24:49;21.60;99.90
21712;DHT22;11017;53.552;9.910;2023-08-06T11:27:17;21.70;99.90
21712;DHT22;11017;53.552;9.910;2023-08-06T11:29:44;21.00;99.90
21712;DHT22;11017;53.552;9.910;2023-08-06T11:32:12;21.00;99.90
21712;DHT22;11017;53.552;9.910;2023-08-06T11:34:39;20.70;99.90
21712;DHT22;11017;53.552;9.910;2023-08-06T11:37:07;20.90;99.90
21712;DHT22;11017;53.552;9.910;2023-08-06T11:39:34;21.40;99.90
21712;DHT22;11017;53.552;9.910;2023-08-06T11:42:03;21.80;99.90
21712;DHT22;11017;53.552;9.910;2023-08-06T11:44:31;21.40;99.90
21712;DHT22;11017;53.552;9.910;2023-08-06T11:46:59;21.50;99.90
21712;DHT22;11017;53.552;9.910;2023-08-06T11:49:45;21.60;99.90
21712;DHT22;11017;53.552;9.910;2023-08-06T11:52:17;21.70;99.90
21712;DHT22;11017;53.552;9.910;2023-08-06T11:55:00;21.70;99.90
21712;DHT22;11017;53.552;9.910;2023-08-06T11:57:29;20.80;99.90
21712;DHT22;11017;53.552;9.910;2023-08-06T12:00:00;20.80;99.90
21712;DHT22;11017;53.552;9.910;2023-08-06T12:02:31;20.40;99.90
21712;DHT22;11017;53.552;9.910;2023-08-06T12:05:09;20.60;99.90
21712;DHT22;11017;53.552;9.910;2023-08-06T12:07:38;20.90;99.90
21712;DHT22;11017;53.552;9.910;2023-08-06T12:10:06;21.20;99.90
21712;DHT22;11017;53.552;9.910;2023-08-06T12:12:33;21.40;99.90
21712;DHT22;11017;53.552;9.910;2023-08-06T12:15:02;21.50;99.90
21712;DHT22;11017;53.552;9.910;2023-08-06T12:17:29;21.50;99.90
21712;DHT22;11017;53.552;9.910;2023-08-06T12:19:56;21.50;99.90
21712;DHT22;11017;53.552;9.910;2023-08-06T12:22:24;21.60;99.90
21712;DHT22;11017;53.552;9.910;2023-08-06T12:24:51;21.70;99.90
21712;DHT22;11017;53.552;9.910;2023-08-06T12:27:18;21.40;99.90
21712;DHT22;11017;53.552;9.910;2023-08-06T12:29:46;21.50;99.90
21712;DHT22;11017;53.552;9.910;2023-08-06T12:32:14;21.70;99.90
21712;DHT22;11017;53.552;9.910;2023-08-06T12:34:42;21.60;99.90
21712;DHT22;11017;53.552;9.910;2023-08-06T12:37:09;21.40;99.90
21712;DHT22;11017;53.552;9.910;2023-08-06T12:39:37;21.20;99.90
21712;DHT22;11017;53.552;9.910;2023-08-06T12:42:05;21.30;99.90
21712;DHT22;11017;53.552;9.910;2023-08-06T12:44:32;21.50;99.90
21712;DHT22;11017;53.552;9.910;2023-08-06T12:46:59;21.70;99.90
21712;DHT22;11017;53.552;9.910;2023-08-06T12:49:26;22.00;99.90
21712;DHT22;11017;53.552;9.910;2023-08-06T12:51:54;22.00;99.90
21712;DHT22;11017;53.552;9.910;2023-08-06T12:54:23;22.20;99.90
21712;DHT22;11017;53.552;9.910;2023-08-06T12:56:51;22.10;99.90
21712;DHT22;11017;53.552;9.910;2023-08-06T12:59:18;22.40;99.90
21712;DHT22;11017;53.552;9.910;2023-08-06T13:01:46;22.50;99.90
21712;DHT22;11017;53.552;9.910;2023-08-06T13:04:14;22.30;99.90
21712;DHT22;11017;53.552;9.910;2023-08-06T13:06:42;22.00;99.90
21712;DHT22;11017;53.552;9.910;2023-08-06T13:09:09;21.70;99.90
21712;DHT22;11017;53.552;9.910;2023-08-06T13:11:37;22.20;99.90
21712;DHT22;11017;53.552;9.910;2023-08-06T13:14:07;22.60;99.90
21712;DHT22;11017;53.552;9.910;2023-08-06T13:16:35;23.00;99.90
21712;DHT22;11017;53.552;9.910;2023-08-06T13:19:05;23.20;99.90
21712;DHT22;11017;53.552;9.910;2023-08-06T13:21:33;23.40;99.90
21712;DHT22;11017;53.552;9.910;2023-08-06T13:24:01;23.70;99.90
21712;DHT22;11017;53.552;9.910;2023-08-06T13:26:29;23.80;99.90
21712;DHT22;11017;53.552;9.910;2023-08-06T13:28:57;23.80;99.90
21712;DHT22;11017;53.552;9.910;2023-08-06T13:31:26;24.10;99.90
21712;DHT22;11017;53.552;9.910;2023-08-06T13:33:54;24.00;99.90
21712;DHT22;11017;53.552;9.910;2023-08-06T13:36:23;24.10;99.90
21712;DHT22;11017;53.552;9.910;2023-08-06T13:38:51;24.20;99.90
21712;DHT22;11017;53.552;9.910;2023-08-06T13:41:18;23.90;99.90
21712;DHT22;11017;53.552;9.910;2023-08-06T13:43:45;23.70;99.90
21712;DHT22;11017;53.552;9.910;2023-08-06T13:46:12;23.50;99.90
21712;DHT22;11017;53.552;9.910;2023-08-06T13:48:43;23.40;99.90
21712;DHT22;11017;53.552;9.910;2023-08-06T13:51:11;23.10;99.90
21712;DHT22;11017;53.552;9.910;2023-08-06T13:53:38;22.90;99.90
21712;DHT22;11017;53.552;9.910;2023-08-06T13:56:05;23.10;99.90
21712;DHT22;11017;53.552;9.910;2023-08-06T13:58:33;23.20;99.90
21712;DHT22;11017;53.552;9.910;2023-08-06T14:01:00;23.20;99.90
21712;DHT22;11017;53.552;9.910;2023-08-06T14:03:27;23.20;99.90
21712;DHT22;11017;53.552;9.910;2023-08-06T14:05:55;23.30;99.90
21712;DHT22;11017;53.552;9.910;2023-08-06T14:08:23;23.50;99.90
21712;DHT22;11017;53.552;9.910;2023-08-06T14:10:50;23.40;99.90
21712;DHT22;11017;53.552;9.910;2023-08-06T14:13:17;23.30;99.90
21712;DHT22;11017;53.552;9.910;2023-08-06T14:15:45;23.10;99.90
21712;DHT22;11017;53.552;9.910;2023-08-06T14:18:12;23.10;99.90
21712;DHT22;11017;53.552;9.910;2023-08-06T14:20:40;23.10;99.90
21712;DHT22;11017;53.552;9.910;2023-08-06T14:23:08;22.60;99.90
21712;DHT22;11017;53.552;9.910;2023-08-06T14:25:36;22.40;99.90
21712;DHT22;11017;53.552;9.910;2023-08-06T14:28:03;22.10;99.90
21712;DHT22;11017;53.552;9.910;2023-08-06T14:30:31;21.70;99.90
21712;DHT22;11017;53.552;9.910;2023-08-06T14:32:58;21.30;99.90
21712;DHT22;11017;53.552;9.910;2023-08-06T14:35:26;21.00;99.90
21712;DHT22;11017;53.552;9.910;2023-08-06T14:37:53;20.70;99.90
21712;DHT22;11017;53.552;9.910;2023-08-06T14:40:22;20.40;99.90
21712;DHT22;11017;53.552;9.910;2023-08-06T14:42:51;20.20;99.90
21712;DHT22;11017;53.552;9.910;2023-08-06T14:45:18;20.20;99.90
21712;DHT22;11017;53.552;9.910;2023-08-06T14:47:44;20.00;99.90
21712;DHT22;11017;53.552;9.910;2023-08-06T14:50:11;19.90;99.90
21712;DHT22;11017;53.552;9.910;2023-08-06T14:52:38;19.70;99.90
21712;DHT22;11017;53.552;9.910;2023-08-06T14:55:05;19.50;99.90
21712;DHT22;11017;53.552;9.910;2023-08-06T14:57:34;19.50;99.90
21712;DHT22;11017;53.552;9.910;2023-08-06T15:00:01;19.30;99.90
21712;DHT22;11017;53.552;9.910;2023-08-06T15:02:28;19.40;99.90
21712;DHT22;11017;53.552;9.910;2023-08-06T15:04:55;19.40;99.90
21712;DHT22;11017;53.552;9.910;2023-08-06T15:07:22;19.30;99.90
21712;DHT22;11017;53.552;9.910;2023-08-06T15:09:49;19.30;99.90
21712;DHT22;11017;53.552;9.910;2023-08-06T15:12:16;19.40;99.90
21712;DHT22;11017;53.552;9.910;2023-08-06T15:14:45;19.50;99.90
21712;DHT22;11017;53.552;9.910;2023-08-06T15:17:12;19.60;99.90
21712;DHT22;11017;53.552;9.910;2023-08-06T15:19:39;19.60;99.90
21712;DHT22;11017;53.552;9.910;2023-08-06T15:22:06;19.50;99.90
21712;DHT22;11017;53.552;9.910;2023-08-06T15:24:32;19.60;99.90
21712;DHT22;11017;53.552;9.910;2023-08-06T15:27:02;19.70;99.90
21712;DHT22;11017;53.552;9.910;2023-08-06T15:29:29;19.80;99.90
21712;DHT22;11017;53.552;9.910;2023-08-06T15:31:57;20.00;99.90
21712;DHT22;11017;53.552;9.910;2023-08-06T15:34:24;20.10;99.90